sensor_id;sensor_type;location;lat;lon;timestamp;temperature;humidity
1626;DHT22;806;48.770;9.156;2022-08-01T00:01:25;24.00;1.00
1626;DHT22;806;48.770;9.156;2022-08-01T00:03:52;24.00;1.00
1626;DHT22;806;48.770;9.156;2022-08-01T00:06:19;24.00;1.00
1626;DHT22;806;48.770;9.156;2022-08-01T00:08:46;24.00;1.00
1626;DHT22;806;48.770;9.156;2022-08-01T00:11:12;23.90;1.00
1626;DHT22;806;48.770;9.156;2022-08-01T00:13:41;23.90;1.00
1626;DHT22;806;48.770;9.156;2022-08-01T00:16:08;23.90;1.00
1626;DHT22;806;48.770;9.156;2022-08-01T00:18:36;23.80;1.00
1626;DHT22;806;48.770;9.156;2022-08-01T00:21:03;23.80;1.00
1626;DHT22;806;48.770;9.156;2022-08-01T00:23:30;23.80;1.00
1626;DHT22;806;48.770;9.156;2022-08-01T00:25:58;24.00;1.00
1626;DHT22;806;48.770;9.156;2022-08-01T00:28:25;24.00;1.00
1626;DHT22;806;48.770;9.156;2022-08-01T00:30:53;24.00;1.00
1626;DHT22;806;48.770;9.156;2022-08-01T00:33:20;24.20;1.00
1626;DHT22;806;48.770;9.156;2022-08-01T00:35:47;24.30;1.00
1626;DHT22;806;48.770;9.156;2022-08-01T00:38:14;24.30;1.00
1626;DHT22;806;48.770;9.156;2022-08-01T00:40:41;24.20;1.00
1626;DHT22;806;48.770;9.156;2022-08-01T00:43:07;24.20;1.00
1626;DHT22;806;48.770;9.156;2022-08-01T00:45:34;24.10;1.00
1626;DHT22;806;48.770;9.156;2022-08-01T00:48:03;24.10;1.00
1626;DHT22;806;48.770;9.156;2022-08-01T00:50:30;24.10;1.00
1626;DHT22;806;48.770;9.156;2022-08-01T00:52:58;24.00;1.00
1626;DHT22;806;48.770;9.156;2022-08-01T00:55:25;24.00;1.00
1626;DHT22;806;48.770;9.156;2022-08-01T00:57:52;24.00;1.00
1626;DHT22;806;48.770;9.156;2022-08-01T01:00:20;23.80;1.00
1626;DHT22;806;48.770;9.156;2022-08-01T01:02:47;23.80;1.00
1626;DHT22;806;48.770;9.156;2022-08-01T01:05:15;23.60;1.00
1626;DHT22;806;48.770;9.156;2022-08-01T01:07:50;23.50;1.00
1626;DHT22;806;48.770;9.156;2022-08-01T01:10:24;23.50;1.00
1626;DHT22;806;48.770;9.156;2022-08-01T01:12:59;23.60;1.00
1626;DHT22;806;48.770;9.156;2022-08-01T01:15:32;23.70;1.00
1626;DHT22;806;48.770;9.156;2022-08-01T01:18:03;23.60;1.00
1626;DHT22;806;48.770;9.156;2022-08-01T01:20:36;23.60;1.00
1626;DHT22;806;48.770;9.156;2022-08-01T01:23:24;23.70;1.00
1626;DHT22;806;48.770;9.156;2022-08-01T01:26:14;23.80;1.00
1626;DHT22;806;48.770;9.156;2022-08-01T01:28:57;23.80;1.00
1626;DHT22;806;48.770;9.156;2022-08-01T01:31:27;23.70;1.00
1626;DHT22;806;48.770;9.156;2022-08-01T01:33:56;23.70;1.00
1626;DHT22;806;48.770;9.156;2022-08-01T01:36:25;23.60;1.00
1626;DHT22;806;48.770;9.156;2022-08-01T01:38:53;23.40;1.00
1626;DHT22;806;48.770;9.156;2022-08-01T01:41:21;23.30;1.00
1626;DHT22;806;48.770;9.156;2022-08-01T01:43:49;23.10;1.00
1626;DHT22;806;48.770;9.156;2022-08-01T01:46:22;23.00;1.00
1626;DHT22;806;48.770;9.156;2022-08-01T01:48:54;23.10;1.00
1626;DHT22;806;48.770;9.156;2022-08-01T01:51:22;23.20;1.00
1626;DHT22;806;48.770;9.156;2022-08-01T01:53:52;23.40;1.00
1626;DHT22;806;48.770;9.156;2022-08-01T01:56:20;23.40;1.00
1626;DHT22;806;48.770;9.156;2022-08-01T01:58:51;23.30;1.00
1626;DHT22;806;48.770;9.156;2022-08-01T02:01:20;23.20;1.00
1626;DHT22;806;48.770;9.156;2022-08-01T02:03:48;23.20;1.00
1626;DHT22;806;48.770;9.156;2022-08-01T02:06:16;23.10;1.00
1626;DHT22;806;48.770;9.156;2022-08-01T02:08:44;23.00;1.00
1626;DHT22;806;48.770;9.156;2022-08-01T02:11:15;22.80;1.00
1626;DHT22;806;48.770;9.156;2022-08-01T02:13:52;22.70;1.00
1626;DHT22;806;48.770;9.156;2022-08-01T02:16:24;22.50;1.00
1626;DHT22;806;48.770;9.156;2022-08-01T02:18:51;22.50;1.00
1626;DHT22;806;48.770;9.156;2022-08-01T02:21:23;22.50;1.00
1626;DHT22;806;48.770;9.156;2022-08-01T02:23:52;22.40;1.00
1626;DHT22;806;48.770;9.156;2022-08-01T02:26:22;22.30;1.00
1626;DHT22;806;48.770;9.156;2022-08-01T02:28:55;22.20;1.00
1626;DHT22;806;48.770;9.156;2022-08-01T02:31:25;22.20;1.00
1626;DHT22;806;48.770;9.156;2022-08-01T02:33:58;22.20;1.00
1626;DHT22;806;48.770;9.156;2022-08-01T02:36:28;22.20;1.00
1626;DHT22;806;48.770;9.156;2022-08-01T02:38:57;22.30;1.00
1626;DHT22;806;48.770;9.156;2022-08-01T02:41:26;22.20;1.00
1626;DHT22;806;48.770;9.156;2022-08-01T02:43:58;22.40;1.00
1626;DHT22;806;48.770;9.156;2022-08-01T02:46:31;22.30;1.00
1626;DHT22;806;48.770;9.156;2022-08-01T02:49:05;22.30;1.00
1626;DHT22;806;48.770;9.156;2022-08-01T02:51:34;22.30;1.00
1626;DHT22;806;48.770;9.156;2022-08-01T02:54:03;22.50;1.00
1626;DHT22;806;48.770;9.156;2022-08-01T02:56:32;22.50;1.00
1626;DHT22;806;48.770;9.156;2022-08-01T02:59:04;22.50;1.00
1626;DHT22;806;48.770;9.156;2022-08-01T03:01:34;22.50;1.00
1626;DHT22;806;48.770;9.156;2022-08-01T03:04:03;22.50;1.00
1626;DHT22;806;48.770;9.156;2022-08-01T03:06:32;22.50;1.00
1626;DHT22;806;48.770;9.156;2022-08-01T03:09:00;22.50;1.00
1626;DHT22;806;48.770;9.156;2022-08-01T03:11:28;22.40;1.00
1626;DHT22;806;48.770;9.156;2022-08-01T03:13:56;22.40;1.00
1626;DHT22;806;48.770;9.156;2022-08-01T03:16:26;22.30;1.00
1626;DHT22;806;48.770;9.156;2022-08-01T03:18:56;22.20;1.00
1626;DHT22;806;48.770;9.156;2022-08-01T03:21:24;22.20;1.00
1626;DHT22;806;48.770;9.156;2022-08-01T03:23:53;22.10;1.00
1626;DHT22;806;48.770;9.156;2022-08-01T03:26:24;22.10;1.00
1626;DHT22;806;48.770;9.156;2022-08-01T03:28:54;22.00;42.80
1626;DHT22;806;48.770;9.156;2022-08-01T03:31:22;22.00;75.90
1626;DHT22;806;48.770;9.156;2022-08-01T03:33:50;21.90;99.90
1626;DHT22;806;48.770;9.156;2022-08-01T03:36:21;21.80;99.90
1626;DHT22;806;48.770;9.156;2022-08-01T03:38:52;21.80;99.90
1626;DHT22;806;48.770;9.156;2022-08-01T03:41:23;21.80;99.90
1626;DHT22;806;48.770;9.156;2022-08-01T03:43:56;21.70;99.90
1626;DHT22;806;48.770;9.156;2022-08-01T03:46:28;21.80;99.90
1626;DHT22;806;48.770;9.156;2022-08-01T03:49:00;22.20;96.80
1626;DHT22;806;48.770;9.156;2022-08-01T03:51:30;22.30;28.90
1626;DHT22;806;48.770;9.156;2022-08-01T03:54:00;22.20;36.20
1626;DHT22;806;48.770;9.156;2022-08-01T03:56:28;22.20;52.40
1626;DHT22;806;48.770;9.156;2022-08-01T03:58:58;22.30;46.70
1626;DHT22;806;48.770;9.156;2022-08-01T04:01:27;22.30;22.50
1626;DHT22;806;48.770;9.156;2022-08-01T04:03:55;22.40;10.40
1626;DHT22;806;48.770;9.156;2022-08-01T04:06:22;22.30;18.10
1626;DHT22;806;48.770;9.156;2022-08-01T04:08:50;22.30;24.80
1626;DHT22;806;48.770;9.156;2022-08-01T04:11:23;22.20;72.80
1626;DHT22;806;48.770;9.156;2022-08-01T04:13:51;22.10;99.90
1626;DHT22;806;48.770;9.156;2022-08-01T04:16:18;22.10;99.90
1626;DHT22;806;48.770;9.156;2022-08-01T04:18:45;22.00;99.90
1626;DHT22;806;48.770;9.156;2022-08-01T04:21:12;22.00;99.90
1626;DHT22;806;48.770;9.156;2022-08-01T04:23:41;22.00;99.90
1626;DHT22;806;48.770;9.156;2022-08-01T04:26:12;21.90;99.90
1626;DHT22;806;48.770;9.156;2022-08-01T04:28:42;21.90;99.90
1626;DHT22;806;48.770;9.156;2022-08-01T04:31:10;21.90;99.90
1626;DHT22;806;48.770;9.156;2022-08-01T04:33:42;21.90;99.90
1626;DHT22;806;48.770;9.156;2022-08-01T04:36:11;22.00;99.90
1626;DHT22;806;48.770;9.156;2022-08-01T04:38:40;22.00;99.90
1626;DHT22;806;48.770;9.156;2022-08-01T04:41:12;22.00;99.90
1626;DHT22;806;48.770;9.156;2022-08-01T04:43:40;22.10;99.90
1626;DHT22;806;48.770;9.156;2022-08-01T04:46:08;22.10;99.90
1626;DHT22;806;48.770;9.156;2022-08-01T04:48:37;22.30;99.90
1626;DHT22;806;48.770;9.156;2022-08-01T04:51:10;22.30;99.90
1626;DHT22;806;48.770;9.156;2022-08-01T04:53:38;22.30;99.90
1626;DHT22;806;48.770;9.156;2022-08-01T04:56:05;22.30;99.90
1626;DHT22;806;48.770;9.156;2022-08-01T04:58:33;22.50;99.90
1626;DHT22;806;48.770;9.156;2022-08-01T05:01:00;22.60;99.90
1626;DHT22;806;48.770;9.156;2022-08-01T05:03:27;22.70;99.90
1626;DHT22;806;48.770;9.156;2022-08-01T05:05:54;22.90;99.90
1626;DHT22;806;48.770;9.156;2022-08-01T05:08:21;22.90;99.90
1626;DHT22;806;48.770;9.156;2022-08-01T05:10:48;22.70;99.90
1626;DHT22;806;48.770;9.156;2022-08-01T05:13:15;22.70;99.90
1626;DHT22;806;48.770;9.156;2022-08-01T05:15:43;22.70;99.90
1626;DHT22;806;48.770;9.156;2022-08-01T05:18:10;22.70;99.90
1626;DHT22;806;48.770;9.156;2022-08-01T05:20:37;22.70;99.90
1626;DHT22;806;48.770;9.156;2022-08-01T05:23:04;22.70;99.90
1626;DHT22;806;48.770;9.156;2022-08-01T05:25:31;22.70;99.90
1626;DHT22;806;48.770;9.156;2022-08-01T05:27:58;22.60;99.90
1626;DHT22;806;48.770;9.156;2022-08-01T05:30:25;22.70;99.90
1626;DHT22;806;48.770;9.156;2022-08-01T05:32:54;22.70;99.90
1626;DHT22;806;48.770;9.156;2022-08-01T05:35:21;22.90;99.90
1626;DHT22;806;48.770;9.156;2022-08-01T05:37:47;22.90;99.90
1626;DHT22;806;48.770;9.156;2022-08-01T05:40:14;22.90;99.90
1626;DHT22;806;48.770;9.156;2022-08-01T05:42:41;22.90;99.90
1626;DHT22;806;48.770;9.156;2022-08-01T05:45:09;22.80;99.90
1626;DHT22;806;48.770;9.156;2022-08-01T05:47:36;22.70;99.90
1626;DHT22;806;48.770;9.156;2022-08-01T05:50:05;22.70;99.90
1626;DHT22;806;48.770;9.156;2022-08-01T05:52:32;22.60;1.00
1626;DHT22;806;48.770;9.156;2022-08-01T05:54:59;22.60;99.90
1626;DHT22;806;48.770;9.156;2022-08-01T05:57:26;22.70;1.00
1626;DHT22;806;48.770;9.156;2022-08-01T05:59:53;22.70;99.90
1626;DHT22;806;48.770;9.156;2022-08-01T06:02:20;22.90;99.90
1626;DHT22;806;48.770;9.156;2022-08-01T06:04:47;23.10;99.90
1626;DHT22;806;48.770;9.156;2022-08-01T06:07:15;23.30;99.90
1626;DHT22;806;48.770;9.156;2022-08-01T06:09:42;23.30;99.90
1626;DHT22;806;48.770;9.156;2022-08-01T06:12:09;23.40;99.90
1626;DHT22;806;48.770;9.156;2022-08-01T06:14:36;23.40;99.90
1626;DHT22;806;48.770;9.156;2022-08-01T06:17:03;23.30;99.90
1626;DHT22;806;48.770;9.156;2022-08-01T06:19:30;23.10;99.90
1626;DHT22;806;48.770;9.156;2022-08-01T06:21:56;23.20;99.90
1626;DHT22;806;48.770;9.156;2022-08-01T06:24:25;23.20;99.90
1626;DHT22;806;48.770;9.156;2022-08-01T06:26:52;23.10;99.90
1626;DHT22;806;48.770;9.156;2022-08-01T06:29:19;23.10;99.90
1626;DHT22;806;48.770;9.156;2022-08-01T06:31:46;23.10;99.90
1626;DHT22;806;48.770;9.156;2022-08-01T06:34:13;23.10;99.90
1626;DHT22;806;48.770;9.156;2022-08-01T06:36:40;23.20;99.90
1626;DHT22;806;48.770;9.156;2022-08-01T06:39:07;23.30;99.90
1626;DHT22;806;48.770;9.156;2022-08-01T06:41:36;23.20;99.90
1626;DHT22;806;48.770;9.156;2022-08-01T06:44:03;23.20;99.90
1626;DHT22;806;48.770;9.156;2022-08-01T06:46:31;23.30;99.90
1626;DHT22;806;48.770;9.156;2022-08-01T06:48:58;23.50;99.90
1626;DHT22;806;48.770;9.156;2022-08-01T06:51:25;23.70;99.90
1626;DHT22;806;48.770;9.156;2022-08-01T06:53:52;23.80;99.90
1626;DHT22;806;48.770;9.156;2022-08-01T06:56:19;23.60;99.90
1626;DHT22;806;48.770;9.156;2022-08-01T06:58:49;23.60;99.90
1626;DHT22;806;48.770;9.156;2022-08-01T07:01:15;23.60;99.90
1626;DHT22;806;48.770;9.156;2022-08-01T07:03:43;23.60;99.90
1626;DHT22;806;48.770;9.156;2022-08-01T07:06:10;23.60;99.90
1626;DHT22;806;48.770;9.156;2022-08-01T07:08:37;23.80;99.90
1626;DHT22;806;48.770;9.156;2022-08-01T07:11:05;23.80;99.90
1626;DHT22;806;48.770;9.156;2022-08-01T07:13:32;23.90;99.90
1626;DHT22;806;48.770;9.156;2022-08-01T07:16:00;24.20;70.10
1626;DHT22;806;48.770;9.156;2022-08-01T07:18:27;24.10;40.20
1626;DHT22;806;48.770;9.156;2022-08-01T07:20:54;24.10;37.90
1626;DHT22;806;48.770;9.156;2022-08-01T07:23:21;24.30;22.00
1626;DHT22;806;48.770;9.156;2022-08-01T07:25:48;24.30;1.00
1626;DHT22;806;48.770;9.156;2022-08-01T07:28:18;24.40;1.00
1626;DHT22;806;48.770;9.156;2022-08-01T07:30:45;24.50;1.00
1626;DHT22;806;48.770;9.156;2022-08-01T07:33:13;24.50;1.00
1626;DHT22;806;48.770;9.156;2022-08-01T07:35:40;24.50;1.00
1626;DHT22;806;48.770;9.156;2022-08-01T07:38:07;24.50;1.00
1626;DHT22;806;48.770;9.156;2022-08-01T07:40:34;24.70;1.00
1626;DHT22;806;48.770;9.156;2022-08-01T07:43:01;25.00;1.00
1626;DHT22;806;48.770;9.156;2022-08-01T07:45:28;25.10;1.00
1626;DHT22;806;48.770;9.156;2022-08-01T07:47:56;25.30;1.00
1626;DHT22;806;48.770;9.156;2022-08-01T07:50:24;25.50;1.00
1626;DHT22;806;48.770;9.156;2022-08-01T07:52:51;25.80;1.00
1626;DHT22;806;48.770;9.156;2022-08-01T07:55:18;25.80;1.00
1626;DHT22;806;48.770;9.156;2022-08-01T07:57:45;25.80;1.00
1626;DHT22;806;48.770;9.156;2022-08-01T08:00:13;25.70;1.00
1626;DHT22;806;48.770;9.156;2022-08-01T08:02:40;25.70;1.00
1626;DHT22;806;48.770;9.156;2022-08-01T08:05:07;25.60;1.00
1626;DHT22;806;48.770;9.156;2022-08-01T08:07:36;25.60;1.00
1626;DHT22;806;48.770;9.156;2022-08-01T08:10:04;25.70;1.00
1626;DHT22;806;48.770;9.156;2022-08-01T08:12:31;25.80;1.00
1626;DHT22;806;48.770;9.156;2022-08-01T08:14:58;25.80;1.00
1626;DHT22;806;48.770;9.156;2022-08-01T08:17:26;25.90;1.00
1626;DHT22;806;48.770;9.156;2022-08-01T08:19:53;26.10;1.00
1626;DHT22;806;48.770;9.156;2022-08-01T08:22:20;26.10;1.00
1626;DHT22;806;48.770;9.156;2022-08-01T08:24:48;26.10;1.00
1626;DHT22;806;48.770;9.156;2022-08-01T08:27:15;26.00;1.00
1626;DHT22;806;48.770;9.156;2022-08-01T08:29:42;26.10;1.00
1626;DHT22;806;48.770;9.156;2022-08-01T08:32:09;26.30;1.00
1626;DHT22;806;48.770;9.156;2022-08-01T08:34:37;26.50;1.00
1626;DHT22;806;48.770;9.156;2022-08-01T08:37:04;26.60;1.00
1626;DHT22;806;48.770;9.156;2022-08-01T08:39:31;26.70;1.00
1626;DHT22;806;48.770;9.156;2022-08-01T08:42:00;26.60;1.00
1626;DHT22;806;48.770;9.156;2022-08-01T08:44:28;26.60;1.00
1626;DHT22;806;48.770;9.156;2022-08-01T08:46:55;26.70;1.00
1626;DHT22;806;48.770;9.156;2022-08-01T08:49:25;26.70;1.00
1626;DHT22;806;48.770;9.156;2022-08-01T08:51:53;26.60;1.00
1626;DHT22;806;48.770;9.156;2022-08-01T08:54:25;26.70;1.00
1626;DHT22;806;48.770;9.156;2022-08-01T08:56:53;26.90;1.00
1626;DHT22;806;48.770;9.156;2022-08-01T08:59:21;26.80;1.00
1626;DHT22;806;48.770;9.156;2022-08-01T09:01:49;26.70;1.00
1626;DHT22;806;48.770;9.156;2022-08-01T09:04:18;26.80;1.00
1626;DHT22;806;48.770;9.156;2022-08-01T09:06:50;26.90;1.00
1626;DHT22;806;48.770;9.156;2022-08-01T09:09:19;27.10;1.00
1626;DHT22;806;48.770;9.156;2022-08-01T09:11:46;27.10;1.00
1626;DHT22;806;48.770;9.156;2022-08-01T09:14:15;27.10;1.00
1626;DHT22;806;48.770;9.156;2022-08-01T09:16:59;27.10;1.00
1626;DHT22;806;48.770;9.156;2022-08-01T09:19:34;27.20;1.00
1626;DHT22;806;48.770;9.156;2022-08-01T09:22:04;27.10;1.00
1626;DHT22;806;48.770;9.156;2022-08-01T09:24:31;27.10;1.00
1626;DHT22;806;48.770;9.156;2022-08-01T09:26:59;27.10;1.00
1626;DHT22;806;48.770;9.156;2022-08-01T09:29:28;27.20;1.00
1626;DHT22;806;48.770;9.156;2022-08-01T09:31:56;27.10;1.00
1626;DHT22;806;48.770;9.156;2022-08-01T09:34:26;27.10;1.00
1626;DHT22;806;48.770;9.156;2022-08-01T09:36:54;27.00;1.00
1626;DHT22;806;48.770;9.156;2022-08-01T09:39:23;27.20;1.00
1626;DHT22;806;48.770;9.156;2022-08-01T09:41:51;27.40;1.00
1626;DHT22;806;48.770;9.156;2022-08-01T09:44:19;27.60;1.00
1626;DHT22;806;48.770;9.156;2022-08-01T09:46:52;27.60;1.00
1626;DHT22;806;48.770;9.156;2022-08-01T09:49:31;27.50;1.00
1626;DHT22;806;48.770;9.156;2022-08-01T09:52:09;27.70;1.00
1626;DHT22;806;48.770;9.156;2022-08-01T09:54:36;27.50;1.00
1626;DHT22;806;48.770;9.156;2022-08-01T09:57:13;27.50;1.00
1626;DHT22;806;48.770;9.156;2022-08-01T09:59:42;27.70;1.00
1626;DHT22;806;48.770;9.156;2022-08-01T10:02:11;27.60;1.00
1626;DHT22;806;48.770;9.156;2022-08-01T10:04:49;27.50;1.00
1626;DHT22;806;48.770;9.156;2022-08-01T10:07:16;27.50;1.00
1626;DHT22;806;48.770;9.156;2022-08-01T10:09:43;27.50;1.00
1626;DHT22;806;48.770;9.156;2022-08-01T10:12:13;27.50;1.00
1626;DHT22;806;48.770;9.156;2022-08-01T10:14:40;27.60;1.00
1626;DHT22;806;48.770;9.156;2022-08-01T10:17:09;27.70;1.00
1626;DHT22;806;48.770;9.156;2022-08-01T10:19:41;27.80;1.00
1626;DHT22;806;48.770;9.156;2022-08-01T10:22:10;28.00;1.00
1626;DHT22;806;48.770;9.156;2022-08-01T10:24:40;28.20;1.00
1626;DHT22;806;48.770;9.156;2022-08-01T10:27:11;28.30;1.00
1626;DHT22;806;48.770;9.156;2022-08-01T10:29:43;28.30;1.00
1626;DHT22;806;48.770;9.156;2022-08-01T10:32:12;28.50;1.00
1626;DHT22;806;48.770;9.156;2022-08-01T10:34:39;28.80;1.00
1626;DHT22;806;48.770;9.156;2022-08-01T10:37:07;29.20;1.00
1626;DHT22;806;48.770;9.156;2022-08-01T10:39:35;29.20;1.00
1626;DHT22;806;48.770;9.156;2022-08-01T10:42:03;29.40;1.00
1626;DHT22;806;48.770;9.156;2022-08-01T10:44:31;29.90;1.00
1626;DHT22;806;48.770;9.156;2022-08-01T10:47:04;30.10;1.00
1626;DHT22;806;48.770;9.156;2022-08-01T10:49:36;29.60;1.00
1626;DHT22;806;48.770;9.156;2022-08-01T10:52:05;29.00;1.00
1626;DHT22;806;48.770;9.156;2022-08-01T10:54:40;28.70;1.00
1626;DHT22;806;48.770;9.156;2022-08-01T10:57:07;28.40;1.00
1626;DHT22;806;48.770;9.156;2022-08-01T10:59:36;28.10;1.00
1626;DHT22;806;48.770;9.156;2022-08-01T11:02:25;28.00;1.00
1626;DHT22;806;48.770;9.156;2022-08-01T11:04:55;28.10;1.00
1626;DHT22;806;48.770;9.156;2022-08-01T11:07:24;28.30;1.00
1626;DHT22;806;48.770;9.156;2022-08-01T11:10:08;28.50;1.00
1626;DHT22;806;48.770;9.156;2022-08-01T11:12:39;28.40;1.00
1626;DHT22;806;48.770;9.156;2022-08-01T11:15:19;28.80;1.00
1626;DHT22;806;48.770;9.156;2022-08-01T11:17:54;29.00;1.00
1626;DHT22;806;48.770;9.156;2022-08-01T11:20:23;28.70;1.00
1626;DHT22;806;48.770;9.156;2022-08-01T11:23:16;28.50;1.00
1626;DHT22;806;48.770;9.156;2022-08-01T11:29:16;28.30;1.00
1626;DHT22;806;48.770;9.156;2022-08-01T11:31:44;28.80;1.00
1626;DHT22;806;48.770;9.156;2022-08-01T11:34:11;29.10;1.00
1626;DHT22;806;48.770;9.156;2022-08-01T11:36:38;29.40;1.00
1626;DHT22;806;48.770;9.156;2022-08-01T11:39:26;29.50;1.00
1626;DHT22;806;48.770;9.156;2022-08-01T11:41:53;30.10;1.00
1626;DHT22;806;48.770;9.156;2022-08-01T11:44:23;30.50;1.00
1626;DHT22;806;48.770;9.156;2022-08-01T11:46:55;30.50;1.00
1626;DHT22;806;48.770;9.156;2022-08-01T11:49:26;30.20;1.00
1626;DHT22;806;48.770;9.156;2022-08-01T11:51:58;29.80;1.00
1626;DHT22;806;48.770;9.156;2022-08-01T11:54:27;29.40;1.00
1626;DHT22;806;48.770;9.156;2022-08-01T11:56:56;29.10;1.00
1626;DHT22;806;48.770;9.156;2022-08-01T11:59:24;29.20;1.00
1626;DHT22;806;48.770;9.156;2022-08-01T12:01:52;29.40;1.00
1626;DHT22;806;48.770;9.156;2022-08-01T12:04:19;29.40;1.00
1626;DHT22;806;48.770;9.156;2022-08-01T12:06:46;29.20;1.00
1626;DHT22;806;48.770;9.156;2022-08-01T12:09:17;29.20;1.00
1626;DHT22;806;48.770;9.156;2022-08-01T12:11:45;29.10;1.00
1626;DHT22;806;48.770;9.156;2022-08-01T12:14:19;29.30;1.00
1626;DHT22;806;48.770;9.156;2022-08-01T12:16:53;29.90;1.00
1626;DHT22;806;48.770;9.156;2022-08-01T12:19:24;30.20;1.00
1626;DHT22;806;48.770;9.156;2022-08-01T12:22:08;29.80;1.00
1626;DHT22;806;48.770;9.156;2022-08-01T12:24:35;29.30;1.00
1626;DHT22;806;48.770;9.156;2022-08-01T12:27:03;29.00;1.00
1626;DHT22;806;48.770;9.156;2022-08-01T12:29:38;28.80;1.00
1626;DHT22;806;48.770;9.156;2022-08-01T12:32:21;28.80;1.00
1626;DHT22;806;48.770;9.156;2022-08-01T12:34:50;28.70;1.00
1626;DHT22;806;48.770;9.156;2022-08-01T12:37:17;28.60;1.00
1626;DHT22;806;48.770;9.156;2022-08-01T12:39:45;28.70;1.00
1626;DHT22;806;48.770;9.156;2022-08-01T12:42:14;29.20;1.00
1626;DHT22;806;48.770;9.156;2022-08-01T12:44:43;29.70;1.00
1626;DHT22;806;48.770;9.156;2022-08-01T12:47:13;30.00;1.00
1626;DHT22;806;48.770;9.156;2022-08-01T12:49:42;29.70;1.00
1626;DHT22;806;48.770;9.156;2022-08-01T12:52:11;29.40;1.00
1626;DHT22;806;48.770;9.156;2022-08-01T12:55:00;29.20;1.00
1626;DHT22;806;48.770;9.156;2022-08-01T12:57:28;28.90;1.00
1626;DHT22;806;48.770;9.156;2022-08-01T13:00:09;29.00;1.00
1626;DHT22;806;48.770;9.156;2022-08-01T13:02:39;28.80;1.00
1626;DHT22;806;48.770;9.156;2022-08-01T13:05:07;28.90;1.00
1626;DHT22;806;48.770;9.156;2022-08-01T13:07:36;29.30;1.00
1626;DHT22;806;48.770;9.156;2022-08-01T13:10:04;30.20;1.00
1626;DHT22;806;48.770;9.156;2022-08-01T13:12:32;30.80;1.00
1626;DHT22;806;48.770;9.156;2022-08-01T13:14:59;30.20;1.00
1626;DHT22;806;48.770;9.156;2022-08-01T13:17:32;29.90;1.00
1626;DHT22;806;48.770;9.156;2022-08-01T13:20:03;29.40;1.00
1626;DHT22;806;48.770;9.156;2022-08-01T13:22:34;29.40;1.00
1626;DHT22;806;48.770;9.156;2022-08-01T13:25:11;29.70;1.00
1626;DHT22;806;48.770;9.156;2022-08-01T13:27:38;29.70;1.00
1626;DHT22;806;48.770;9.156;2022-08-01T13:30:12;29.70;1.00
1626;DHT22;806;48.770;9.156;2022-08-01T13:32:40;30.30;1.00
1626;DHT22;806;48.770;9.156;2022-08-01T13:35:12;30.60;1.00
1626;DHT22;806;48.770;9.156;2022-08-01T13:37:40;30.50;1.00
1626;DHT22;806;48.770;9.156;2022-08-01T13:40:09;30.50;1.00
1626;DHT22;806;48.770;9.156;2022-08-01T13:42:37;30.40;1.00
1626;DHT22;806;48.770;9.156;2022-08-01T13:45:05;30.40;1.00
1626;DHT22;806;48.770;9.156;2022-08-01T13:47:36;30.80;1.00
1626;DHT22;806;48.770;9.156;2022-08-01T13:50:03;30.80;1.00
1626;DHT22;806;48.770;9.156;2022-08-01T13:52:32;30.40;1.00
1626;DHT22;806;48.770;9.156;2022-08-01T13:54:59;30.30;1.00
1626;DHT22;806;48.770;9.156;2022-08-01T13:57:27;30.30;1.00
1626;DHT22;806;48.770;9.156;2022-08-01T13:59:54;30.30;1.00
1626;DHT22;806;48.770;9.156;2022-08-01T14:02:23;30.10;1.00
1626;DHT22;806;48.770;9.156;2022-08-01T14:04:50;30.50;1.00
1626;DHT22;806;48.770;9.156;2022-08-01T14:07:17;31.00;1.00
1626;DHT22;806;48.770;9.156;2022-08-01T14:09:46;31.40;1.00
1626;DHT22;806;48.770;9.156;2022-08-01T14:12:13;31.20;1.00
1626;DHT22;806;48.770;9.156;2022-08-01T14:14:40;31.30;1.00
1626;DHT22;806;48.770;9.156;2022-08-01T14:17:07;30.80;1.00
1626;DHT22;806;48.770;9.156;2022-08-01T14:19:34;30.80;1.00
1626;DHT22;806;48.770;9.156;2022-08-01T14:22:01;30.90;1.00
1626;DHT22;806;48.770;9.156;2022-08-01T14:24:28;30.80;1.00
1626;DHT22;806;48.770;9.156;2022-08-01T14:26:56;30.70;1.00
1626;DHT22;806;48.770;9.156;2022-08-01T14:29:23;30.50;1.00
1626;DHT22;806;48.770;9.156;2022-08-01T14:31:50;30.30;1.00
1626;DHT22;806;48.770;9.156;2022-08-01T14:34:17;30.20;1.00
1626;DHT22;806;48.770;9.156;2022-08-01T14:36:44;30.30;1.00
1626;DHT22;806;48.770;9.156;2022-08-01T14:39:11;30.50;1.00
1626;DHT22;806;48.770;9.156;2022-08-01T14:41:39;30.60;1.00
1626;DHT22;806;48.770;9.156;2022-08-01T14:44:07;30.70;1.00
1626;DHT22;806;48.770;9.156;2022-08-01T14:46:34;30.70;1.00
1626;DHT22;806;48.770;9.156;2022-08-01T14:49:01;30.50;1.00
1626;DHT22;806;48.770;9.156;2022-08-01T14:51:28;30.40;1.00
1626;DHT22;806;48.770;9.156;2022-08-01T14:53:58;30.30;1.00
1626;DHT22;806;48.770;9.156;2022-08-01T14:56:25;30.30;1.00
1626;DHT22;806;48.770;9.156;2022-08-01T14:58:52;30.50;1.00
1626;DHT22;806;48.770;9.156;2022-08-01T15:01:20;30.70;1.00
1626;DHT22;806;48.770;9.156;2022-08-01T15:03:47;30.80;1.00
1626;DHT22;806;48.770;9.156;2022-08-01T15:06:16;30.60;1.00
1626;DHT22;806;48.770;9.156;2022-08-01T15:08:43;30.20;1.00
1626;DHT22;806;48.770;9.156;2022-08-01T15:11:10;30.10;1.00
1626;DHT22;806;48.770;9.156;2022-08-01T15:13:37;30.50;1.00
1626;DHT22;806;48.770;9.156;2022-08-01T15:16:04;30.50;1.00
1626;DHT22;806;48.770;9.156;2022-08-01T15:18:32;30.10;1.00
1626;DHT22;806;48.770;9.156;2022-08-01T15:21:02;30.20;1.00
1626;DHT22;806;48.770;9.156;2022-08-01T15:23:32;30.30;1.00
1626;DHT22;806;48.770;9.156;2022-08-01T15:25:59;30.40;1.00
1626;DHT22;806;48.770;9.156;2022-08-01T15:28:26;30.30;1.00
1626;DHT22;806;48.770;9.156;2022-08-01T15:30:53;30.30;1.00
1626;DHT22;806;48.770;9.156;2022-08-01T15:33:20;30.20;1.00
1626;DHT22;806;48.770;9.156;2022-08-01T15:35:49;30.20;1.00
1626;DHT22;806;48.770;9.156;2022-08-01T15:38:16;30.30;1.00
1626;DHT22;806;48.770;9.156;2022-08-01T15:40:44;30.20;1.00
1626;DHT22;806;48.770;9.156;2022-08-01T15:43:11;30.00;1.00
1626;DHT22;806;48.770;9.156;2022-08-01T15:45:38;30.00;1.00
1626;DHT22;806;48.770;9.156;2022-08-01T15:48:05;29.80;1.00
1626;DHT22;806;48.770;9.156;2022-08-01T15:50:32;29.70;1.00
1626;DHT22;806;48.770;9.156;2022-08-01T15:53:04;29.80;1.00
1626;DHT22;806;48.770;9.156;2022-08-01T15:55:31;29.70;1.00
1626;DHT22;806;48.770;9.156;2022-08-01T15:57:58;29.70;1.00
1626;DHT22;806;48.770;9.156;2022-08-01T16:00:25;29.40;1.00
1626;DHT22;806;48.770;9.156;2022-08-01T16:02:52;29.30;1.00
1626;DHT22;806;48.770;9.156;2022-08-01T16:05:20;29.20;1.00
1626;DHT22;806;48.770;9.156;2022-08-01T16:07:47;29.10;1.00
1626;DHT22;806;48.770;9.156;2022-08-01T16:10:15;29.10;1.00
1626;DHT22;806;48.770;9.156;2022-08-01T16:12:43;29.10;1.00
1626;DHT22;806;48.770;9.156;2022-08-01T16:15:10;29.00;1.00
1626;DHT22;806;48.770;9.156;2022-08-01T16:17:37;28.90;1.00
1626;DHT22;806;48.770;9.156;2022-08-01T16:20:05;29.00;1.00
1626;DHT22;806;48.770;9.156;2022-08-01T16:22:35;28.70;1.00
1626;DHT22;806;48.770;9.156;2022-08-01T16:25:02;28.70;1.00
1626;DHT22;806;48.770;9.156;2022-08-01T16:27:31;28.80;1.00
1626;DHT22;806;48.770;9.156;2022-08-01T16:29:58;28.90;1.00
1626;DHT22;806;48.770;9.156;2022-08-01T16:32:24;28.90;1.00
1626;DHT22;806;48.770;9.156;2022-08-01T16:34:51;28.90;1.00
1626;DHT22;806;48.770;9.156;2022-08-01T16:37:18;28.90;1.00
1626;DHT22;806;48.770;9.156;2022-08-01T16:39:45;28.80;1.00
1626;DHT22;806;48.770;9.156;2022-08-01T16:42:12;28.70;1.00
1626;DHT22;806;48.770;9.156;2022-08-01T16:44:40;28.50;1.00
1626;DHT22;806;48.770;9.156;2022-08-01T16:47:12;28.50;1.00